sensor_id;sensor_type;location;lat;lon;timestamp;P1;P2;P0
73565;PMS5003;61846;52.970;-3.168;2023-04-01T00:00:58;2;2;
73565;PMS5003;61846;52.970;-3.168;2023-04-01T00:03:23;4;4;
73565;PMS5003;61846;52.970;-3.168;2023-04-01T00:05:48;3;2;
73565;PMS5003;61846;52.970;-3.168;2023-04-01T00:08:14;3;3;
73565;PMS5003;61846;52.970;-3.168;2023-04-01T00:10:39;5;5;
73565;PMS5003;61846;52.970;-3.168;2023-04-01T00:13:05;5;4;
73565;PMS5003;61846;52.970;-3.168;2023-04-01T00:15:30;3;3;
73565;PMS5003;61846;52.970;-3.168;2023-04-01T00:17:56;4;3;
73565;PMS5003;61846;52.970;-3.168;2023-04-01T00:20:22;5;5;
73565;PMS5003;61846;52.970;-3.168;2023-04-01T00:22:47;12;6;
73565;PMS5003;61846;52.970;-3.168;2023-04-01T00:25:12;7;7;
73565;PMS5003;61846;52.970;-3.168;2023-04-01T00:27:38;21;19;
73565;PMS5003;61846;52.970;-3.168;2023-04-01T00:30:03;8;8;
73565;PMS5003;61846;52.970;-3.168;2023-04-01T00:32:29;10;9;
73565;PMS5003;61846;52.970;-3.168;2023-04-01T00:34:54;10;9;
73565;PMS5003;61846;52.970;-3.168;2023-04-01T00:37:20;15;14;
73565;PMS5003;61846;52.970;-3.168;2023-04-01T00:39:45;21;14;
73565;PMS5003;61846;52.970;-3.168;2023-04-01T00:42:11;20;17;
73565;PMS5003;61846;52.970;-3.168;2023-04-01T00:44:36;5;5;
73565;PMS5003;61846;52.970;-3.168;2023-04-01T00:47:02;5;5;
73565;PMS5003;61846;52.970;-3.168;2023-04-01T00:49:29;7;6;
73565;PMS5003;61846;52.970;-3.168;2023-04-01T00:51:53;9;8;
73565;PMS5003;61846;52.970;-3.168;2023-04-01T00:54:18;8;8;
73565;PMS5003;61846;52.970;-3.168;2023-04-01T00:56:45;12;10;
73565;PMS5003;61846;52.970;-3.168;2023-04-01T00:59:10;12;9;
73565;PMS5003;61846;52.970;-3.168;2023-04-01T01:01:34;11;7;
73565;PMS5003;61846;52.970;-3.168;2023-04-01T01:03:59;9;7;
73565;PMS5003;61846;52.970;-3.168;2023-04-01T01:06:27;15;10;
73565;PMS5003;61846;52.970;-3.168;2023-04-01T01:08:55;12;12;
73565;PMS5003;61846;52.970;-3.168;2023-04-01T01:11:16;9;8;
73565;PMS5003;61846;52.970;-3.168;2023-04-01T01:13:43;6;6;
73565;PMS5003;61846;52.970;-3.168;2023-04-01T01:16:09;9;8;
73565;PMS5003;61846;52.970;-3.168;2023-04-01T01:18:33;7;7;
73565;PMS5003;61846;52.970;-3.168;2023-04-01T01:21:07;9;7;
73565;PMS5003;61846;52.970;-3.168;2023-04-01T01:25:51;6;6;
73565;PMS5003;61846;52.970;-3.168;2023-04-01T01:28:20;8;6;
73565;PMS5003;61846;52.970;-3.168;2023-04-01T01:30:42;7;7;
73565;PMS5003;61846;52.970;-3.168;2023-04-01T01:33:07;5;5;
73565;PMS5003;61846;52.970;-3.168;2023-04-01T01:35:32;6;6;
73565;PMS5003;61846;52.970;-3.168;2023-04-01T01:37:58;7;7;
73565;PMS5003;61846;52.970;-3.168;2023-04-01T01:40:22;8;5;
73565;PMS5003;61846;52.970;-3.168;2023-04-01T01:42:50;7;6;
73565;PMS5003;61846;52.970;-3.168;2023-04-01T01:45:14;8;8;
73565;PMS5003;61846;52.970;-3.168;2023-04-01T01:47:39;5;5;
73565;PMS5003;61846;52.970;-3.168;2023-04-01T01:50:05;9;9;
73565;PMS5003;61846;52.970;-3.168;2023-04-01T01:52:30;8;8;
73565;PMS5003;61846;52.970;-3.168;2023-04-01T01:54:56;10;10;
73565;PMS5003;61846;52.970;-3.168;2023-04-01T01:57:22;10;7;
73565;PMS5003;61846;52.970;-3.168;2023-04-01T01:59:46;9;8;
73565;PMS5003;61846;52.970;-3.168;2023-04-01T02:02:11;8;8;
73565;PMS5003;61846;52.970;-3.168;2023-04-01T02:04:37;11;9;
73565;PMS5003;61846;52.970;-3.168;2023-04-01T02:07:03;9;8;
73565;PMS5003;61846;52.970;-3.168;2023-04-01T02:09:28;6;6;
73565;PMS5003;61846;52.970;-3.168;2023-04-01T02:11:55;8;8;
73565;PMS5003;61846;52.970;-3.168;2023-04-01T02:14:20;8;8;
73565;PMS5003;61846;52.970;-3.168;2023-04-01T02:16:45;10;8;
73565;PMS5003;61846;52.970;-3.168;2023-04-01T02:19:10;9;9;
73565;PMS5003;61846;52.970;-3.168;2023-04-01T02:21:35;12;11;
73565;PMS5003;61846;52.970;-3.168;2023-04-01T02:24:01;11;11;
73565;PMS5003;61846;52.970;-3.168;2023-04-01T02:26:26;11;11;
73565;PMS5003;61846;52.970;-3.168;2023-04-01T02:28:52;11;10;
73565;PMS5003;61846;52.970;-3.168;2023-04-01T02:31:17;9;9;
73565;PMS5003;61846;52.970;-3.168;2023-04-01T02:33:43;11;11;
73565;PMS5003;61846;52.970;-3.168;2023-04-01T02:36:10;15;11;
73565;PMS5003;61846;52.970;-3.168;2023-04-01T02:38:35;12;11;
73565;PMS5003;61846;52.970;-3.168;2023-04-01T02:41:00;11;11;
73565;PMS5003;61846;52.970;-3.168;2023-04-01T02:43:25;9;9;
73565;PMS5003;61846;52.970;-3.168;2023-04-01T02:45:51;14;13;
73565;PMS5003;61846;52.970;-3.168;2023-04-01T02:48:16;13;11;
73565;PMS5003;61846;52.970;-3.168;2023-04-01T02:50:42;9;9;
73565;PMS5003;61846;52.970;-3.168;2023-04-01T02:53:07;13;11;
73565;PMS5003;61846;52.970;-3.168;2023-04-01T02:55:33;12;9;
73565;PMS5003;61846;52.970;-3.168;2023-04-01T02:57:59;8;8;
73565;PMS5003;61846;52.970;-3.168;2023-04-01T03:00:24;11;11;
73565;PMS5003;61846;52.970;-3.168;2023-04-01T03:02:49;8;8;
73565;PMS5003;61846;52.970;-3.168;2023-04-01T03:05:15;6;6;
73565;PMS5003;61846;52.970;-3.168;2023-04-01T03:07:41;6;6;
73565;PMS5003;61846;52.970;-3.168;2023-04-01T03:10:07;8;8;
73565;PMS5003;61846;52.970;-3.168;2023-04-01T03:12:32;11;10;
73565;PMS5003;61846;52.970;-3.168;2023-04-01T03:14:57;13;13;
73565;PMS5003;61846;52.970;-3.168;2023-04-01T03:17:23;8;8;
73565;PMS5003;61846;52.970;-3.168;2023-04-01T03:19:48;14;6;
73565;PMS5003;61846;52.970;-3.168;2023-04-01T03:22:13;5;5;
73565;PMS5003;61846;52.970;-3.168;2023-04-01T03:24:39;8;8;
73565;PMS5003;61846;52.970;-3.168;2023-04-01T03:27:05;6;6;
73565;PMS5003;61846;52.970;-3.168;2023-04-01T03:29:30;8;8;
73565;PMS5003;61846;52.970;-3.168;2023-04-01T03:31:56;5;5;
73565;PMS5003;61846;52.970;-3.168;2023-04-01T03:34:21;7;7;
73565;PMS5003;61846;52.970;-3.168;2023-04-01T03:36:46;8;8;
73565;PMS5003;61846;52.970;-3.168;2023-04-01T03:39:12;7;7;
73565;PMS5003;61846;52.970;-3.168;2023-04-01T03:41:37;8;8;
73565;PMS5003;61846;52.970;-3.168;2023-04-01T03:44:03;5;5;
73565;PMS5003;61846;52.970;-3.168;2023-04-01T03:46:28;9;6;
73565;PMS5003;61846;52.970;-3.168;2023-04-01T03:48:54;8;8;
73565;PMS5003;61846;52.970;-3.168;2023-04-01T03:51:19;6;6;
73565;PMS5003;61846;52.970;-3.168;2023-04-01T03:53:45;8;8;
73565;PMS5003;61846;52.970;-3.168;2023-04-01T03:56:11;7;5;
73565;PMS5003;61846;52.970;-3.168;2023-04-01T03:58:36;13;8;
73565;PMS5003;61846;52.970;-3.168;2023-04-01T04:01:01;7;7;
73565;PMS5003;61846;52.970;-3.168;2023-04-01T04:03:27;10;10;
73565;PMS5003;61846;52.970;-3.168;2023-04-01T04:05:52;7;6;
73565;PMS5003;61846;52.970;-3.168;2023-04-01T04:08:18;8;6;
73565;PMS5003;61846;52.970;-3.168;2023-04-01T04:10:43;10;6;
73565;PMS5003;61846;52.970;-3.168;2023-04-01T04:13:09;5;4;
73565;PMS5003;61846;52.970;-3.168;2023-04-01T04:15:35;5;5;
73565;PMS5003;61846;52.970;-3.168;2023-04-01T04:18:00;5;5;
73565;PMS5003;61846;52.970;-3.168;2023-04-01T04:20:26;5;5;
73565;PMS5003;61846;52.970;-3.168;2023-04-01T04:22:51;6;2;
73565;PMS5003;61846;52.970;-3.168;2023-04-01T04:25:17;5;5;
73565;PMS5003;61846;52.970;-3.168;2023-04-01T04:27:42;9;9;
73565;PMS5003;61846;52.970;-3.168;2023-04-01T04:30:08;9;8;
73565;PMS5003;61846;52.970;-3.168;2023-04-01T04:32:33;7;7;
73565;PMS5003;61846;52.970;-3.168;2023-04-01T04:34:59;9;9;
73565;PMS5003;61846;52.970;-3.168;2023-04-01T04:37:24;10;9;
73565;PMS5003;61846;52.970;-3.168;2023-04-01T04:39:50;7;6;
73565;PMS5003;61846;52.970;-3.168;2023-04-01T04:42:15;5;5;
73565;PMS5003;61846;52.970;-3.168;2023-04-01T04:44:41;5;5;
73565;PMS5003;61846;52.970;-3.168;2023-04-01T04:47:06;3;3;
73565;PMS5003;61846;52.970;-3.168;2023-04-01T04:49:32;3;3;
73565;PMS5003;61846;52.970;-3.168;2023-04-01T04:51:57;8;7;
73565;PMS5003;61846;52.970;-3.168;2023-04-01T04:54:23;5;5;
73565;PMS5003;61846;52.970;-3.168;2023-04-01T04:56:50;6;5;
73565;PMS5003;61846;52.970;-3.168;2023-04-01T04:59:14;2;2;
73565;PMS5003;61846;52.970;-3.168;2023-04-01T05:01:39;6;6;
73565;PMS5003;61846;52.970;-3.168;2023-04-01T05:04:05;5;5;
73565;PMS5003;61846;52.970;-3.168;2023-04-01T05:06:31;7;6;
73565;PMS5003;61846;52.970;-3.168;2023-04-01T05:08:56;7;5;
73565;PMS5003;61846;52.970;-3.168;2023-04-01T05:11:21;5;5;
73565;PMS5003;61846;52.970;-3.168;2023-04-01T05:13:47;6;6;
73565;PMS5003;61846;52.970;-3.168;2023-04-01T05:16:14;5;5;
73565;PMS5003;61846;52.970;-3.168;2023-04-01T05:18:38;5;5;
73565;PMS5003;61846;52.970;-3.168;2023-04-01T05:21:04;7;6;
73565;PMS5003;61846;52.970;-3.168;2023-04-01T05:23:30;7;5;
73565;PMS5003;61846;52.970;-3.168;2023-04-01T05:25:54;8;6;
73565;PMS5003;61846;52.970;-3.168;2023-04-01T05:28:20;7;7;
73565;PMS5003;61846;52.970;-3.168;2023-04-01T05:30:45;4;3;
73565;PMS5003;61846;52.970;-3.168;2023-04-01T05:33:11;4;4;
73565;PMS5003;61846;52.970;-3.168;2023-04-01T05:35:36;4;4;
73565;PMS5003;61846;52.970;-3.168;2023-04-01T05:38:02;4;4;
73565;PMS5003;61846;52.970;-3.168;2023-04-01T05:40:27;5;4;
73565;PMS5003;61846;52.970;-3.168;2023-04-01T05:42:53;2;2;
73565;PMS5003;61846;52.970;-3.168;2023-04-01T05:45:19;4;4;
73565;PMS5003;61846;52.970;-3.168;2023-04-01T05:47:44;4;4;
73565;PMS5003;61846;52.970;-3.168;2023-04-01T05:50:10;5;3;
73565;PMS5003;61846;52.970;-3.168;2023-04-01T05:52:35;3;3;
73565;PMS5003;61846;52.970;-3.168;2023-04-01T05:55:01;4;4;
73565;PMS5003;61846;52.970;-3.168;2023-04-01T05:57:26;3;3;
73565;PMS5003;61846;52.970;-3.168;2023-04-01T05:59:52;3;3;
73565;PMS5003;61846;52.970;-3.168;2023-04-01T06:02:18;3;3;
73565;PMS5003;61846;52.970;-3.168;2023-04-01T06:04:43;2;2;
73565;PMS5003;61846;52.970;-3.168;2023-04-01T06:07:11;3;3;
73565;PMS5003;61846;52.970;-3.168;2023-04-01T06:09:34;6;6;
73565;PMS5003;61846;52.970;-3.168;2023-04-01T06:12:06;7;7;
73565;PMS5003;61846;52.970;-3.168;2023-04-01T06:14:28;3;3;
73565;PMS5003;61846;52.970;-3.168;2023-04-01T06:16:56;5;4;
73565;PMS5003;61846;52.970;-3.168;2023-04-01T06:19:21;5;5;
73565;PMS5003;61846;52.970;-3.168;2023-04-01T06:21:47;3;3;
73565;PMS5003;61846;52.970;-3.168;2023-04-01T06:24:12;3;3;
73565;PMS5003;61846;52.970;-3.168;2023-04-01T06:26:34;5;5;
73565;PMS5003;61846;52.970;-3.168;2023-04-01T06:29:02;5;5;
73565;PMS5003;61846;52.970;-3.168;2023-04-01T06:31:26;4;4;
73565;PMS5003;61846;52.970;-3.168;2023-04-01T06:33:53;5;5;
73565;PMS5003;61846;52.970;-3.168;2023-04-01T06:36:22;6;6;
73565;PMS5003;61846;52.970;-3.168;2023-04-01T06:38:45;7;7;
73565;PMS5003;61846;52.970;-3.168;2023-04-01T06:41:16;9;9;
73565;PMS5003;61846;52.970;-3.168;2023-04-01T06:43:35;9;9;
73565;PMS5003;61846;52.970;-3.168;2023-04-01T06:45:58;10;10;
73565;PMS5003;61846;52.970;-3.168;2023-04-01T06:48:29;11;10;
73565;PMS5003;61846;52.970;-3.168;2023-04-01T06:50:51;11;10;
73565;PMS5003;61846;52.970;-3.168;2023-04-01T06:53:16;9;9;
73565;PMS5003;61846;52.970;-3.168;2023-04-01T06:55:41;10;10;
73565;PMS5003;61846;52.970;-3.168;2023-04-01T06:58:06;8;8;
73565;PMS5003;61846;52.970;-3.168;2023-04-01T07:00:31;11;11;
73565;PMS5003;61846;52.970;-3.168;2023-04-01T07:03:00;15;14;
73565;PMS5003;61846;52.970;-3.168;2023-04-01T07:05:23;17;14;
73565;PMS5003;61846;52.970;-3.168;2023-04-01T07:07:49;22;16;
73565;PMS5003;61846;52.970;-3.168;2023-04-01T07:10:15;15;14;
73565;PMS5003;61846;52.970;-3.168;2023-04-01T07:12:41;10;10;
73565;PMS5003;61846;52.970;-3.168;2023-04-01T07:15:09;15;13;
73565;PMS5003;61846;52.970;-3.168;2023-04-01T07:17:31;15;15;
73565;PMS5003;61846;52.970;-3.168;2023-04-01T07:19:57;11;11;
73565;PMS5003;61846;52.970;-3.168;2023-04-01T07:22:24;18;14;
73565;PMS5003;61846;52.970;-3.168;2023-04-01T07:24:46;10;10;
73565;PMS5003;61846;52.970;-3.168;2023-04-01T07:27:13;14;11;
73565;PMS5003;61846;52.970;-3.168;2023-04-01T07:29:38;17;16;
73565;PMS5003;61846;52.970;-3.168;2023-04-01T07:32:08;11;10;
73565;PMS5003;61846;52.970;-3.168;2023-04-01T07:34:29;15;13;
73565;PMS5003;61846;52.970;-3.168;2023-04-01T07:36:54;15;14;
73565;PMS5003;61846;52.970;-3.168;2023-04-01T07:39:23;9;9;
73565;PMS5003;61846;52.970;-3.168;2023-04-01T07:41:47;14;14;
73565;PMS5003;61846;52.970;-3.168;2023-04-01T07:44:11;18;14;
73565;PMS5003;61846;52.970;-3.168;2023-04-01T07:46:43;24;23;
73565;PMS5003;61846;52.970;-3.168;2023-04-01T07:49:03;21;18;
73565;PMS5003;61846;52.970;-3.168;2023-04-01T07:51:27;24;24;
73565;PMS5003;61846;52.970;-3.168;2023-04-01T07:53:53;23;23;
73565;PMS5003;61846;52.970;-3.168;2023-04-01T07:56:18;31;24;
73565;PMS5003;61846;52.970;-3.168;2023-04-01T07:58:47;21;21;
73565;PMS5003;61846;52.970;-3.168;2023-04-01T08:01:10;26;18;
73565;PMS5003;61846;52.970;-3.168;2023-04-01T08:03:38;23;17;
73565;PMS5003;61846;52.970;-3.168;2023-04-01T08:06:02;16;15;
73565;PMS5003;61846;52.970;-3.168;2023-04-01T08:08:29;17;17;
73565;PMS5003;61846;52.970;-3.168;2023-04-01T08:10:52;17;16;
73565;PMS5003;61846;52.970;-3.168;2023-04-01T08:13:20;14;14;
73565;PMS5003;61846;52.970;-3.168;2023-04-01T08:15:44;15;15;
73565;PMS5003;61846;52.970;-3.168;2023-04-01T08:18:11;18;11;
73565;PMS5003;61846;52.970;-3.168;2023-04-01T08:20:35;10;10;
73565;PMS5003;61846;52.970;-3.168;2023-04-01T08:23:00;12;10;
73565;PMS5003;61846;52.970;-3.168;2023-04-01T08:25:26;7;7;
73565;PMS5003;61846;52.970;-3.168;2023-04-01T08:27:51;10;10;
73565;PMS5003;61846;52.970;-3.168;2023-04-01T08:30:17;11;10;
73565;PMS5003;61846;52.970;-3.168;2023-04-01T08:32:41;7;7;
73565;PMS5003;61846;52.970;-3.168;2023-04-01T08:35:07;10;10;
73565;PMS5003;61846;52.970;-3.168;2023-04-01T08:37:32;12;9;
73565;PMS5003;61846;52.970;-3.168;2023-04-01T08:39:58;9;9;
73565;PMS5003;61846;52.970;-3.168;2023-04-01T08:42:35;11;11;
73565;PMS5003;61846;52.970;-3.168;2023-04-01T08:47:19;11;10;
73565;PMS5003;61846;52.970;-3.168;2023-04-01T08:49:44;10;10;
73565;PMS5003;61846;52.970;-3.168;2023-04-01T08:52:09;12;11;
73565;PMS5003;61846;52.970;-3.168;2023-04-01T08:54:43;11;11;
73565;PMS5003;61846;52.970;-3.168;2023-04-01T08:56:56;12;11;
73565;PMS5003;61846;52.970;-3.168;2023-04-01T08:59:26;13;11;
73565;PMS5003;61846;52.970;-3.168;2023-04-01T09:01:52;10;9;
73565;PMS5003;61846;52.970;-3.168;2023-04-01T09:04:18;8;8;
73565;PMS5003;61846;52.970;-3.168;2023-04-01T09:06:40;8;8;
73565;PMS5003;61846;52.970;-3.168;2023-04-01T09:09:09;7;7;
73565;PMS5003;61846;52.970;-3.168;2023-04-01T09:11:32;6;6;
73565;PMS5003;61846;52.970;-3.168;2023-04-01T09:13:59;9;9;
73565;PMS5003;61846;52.970;-3.168;2023-04-01T09:16:23;8;8;
73565;PMS5003;61846;52.970;-3.168;2023-04-01T09:18:49;12;10;
73565;PMS5003;61846;52.970;-3.168;2023-04-01T09:21:15;7;7;
73565;PMS5003;61846;52.970;-3.168;2023-04-01T09:26:07;9;9;
73565;PMS5003;61846;52.970;-3.168;2023-04-01T09:28:28;6;6;
73565;PMS5003;61846;52.970;-3.168;2023-04-01T09:35:46;7;7;
73565;PMS5003;61846;52.970;-3.168;2023-04-01T09:38:17;8;8;
73565;PMS5003;61846;52.970;-3.168;2023-04-01T09:40:38;7;7;
73565;PMS5003;61846;52.970;-3.168;2023-04-01T09:43:06;8;8;
73565;PMS5003;61846;52.970;-3.168;2023-04-01T09:45:31;9;8;
73565;PMS5003;61846;52.970;-3.168;2023-04-01T09:47:56;16;12;
73565;PMS5003;61846;52.970;-3.168;2023-04-01T09:52:44;8;7;
73565;PMS5003;61846;52.970;-3.168;2023-04-01T09:55:18;6;6;
73565;PMS5003;61846;52.970;-3.168;2023-04-01T09:57:39;6;6;
73565;PMS5003;61846;52.970;-3.168;2023-04-01T10:02:31;5;5;
73565;PMS5003;61846;52.970;-3.168;2023-04-01T10:14:36;8;7;
73565;PMS5003;61846;52.970;-3.168;2023-04-01T10:17:04;12;7;
73565;PMS5003;61846;52.970;-3.168;2023-04-01T10:21:57;4;4;
73565;PMS5003;61846;52.970;-3.168;2023-04-01T10:24:20;10;10;
73565;PMS5003;61846;52.970;-3.168;2023-04-01T10:26:46;7;7;
73565;PMS5003;61846;52.970;-3.168;2023-04-01T10:29:17;5;5;
73565;PMS5003;61846;52.970;-3.168;2023-04-01T10:31:36;5;5;
73565;PMS5003;61846;52.970;-3.168;2023-04-01T10:41:21;5;4;
73565;PMS5003;61846;52.970;-3.168;2023-04-01T10:51:01;7;5;
73565;PMS5003;61846;52.970;-3.168;2023-04-01T10:53:33;1;1;
73565;PMS5003;61846;52.970;-3.168;2023-04-01T10:55:54;7;4;
73565;PMS5003;61846;52.970;-3.168;2023-04-01T10:58:22;3;3;
73565;PMS5003;61846;52.970;-3.168;2023-04-01T11:10:28;3;3;
73565;PMS5003;61846;52.970;-3.168;2023-04-01T11:17:42;4;4;
73565;PMS5003;61846;52.970;-3.168;2023-04-01T11:22:33;4;1;
73565;PMS5003;61846;52.970;-3.168;2023-04-01T11:24:59;2;2;
73565;PMS5003;61846;52.970;-3.168;2023-04-01T11:27:25;8;7;
73565;PMS5003;61846;52.970;-3.168;2023-04-01T11:29:49;3;2;
73565;PMS5003;61846;52.970;-3.168;2023-04-01T11:32:13;4;4;
73565;PMS5003;61846;52.970;-3.168;2023-04-01T11:34:42;8;7;
73565;PMS5003;61846;52.970;-3.168;2023-04-01T11:37:04;6;4;
73565;PMS5003;61846;52.970;-3.168;2023-04-01T11:39:30;6;4;
73565;PMS5003;61846;52.970;-3.168;2023-04-01T11:41:56;3;3;
73565;PMS5003;61846;52.970;-3.168;2023-04-01T11:44:18;2;2;
73565;PMS5003;61846;52.970;-3.168;2023-04-01T11:46:51;1;1;
73565;PMS5003;61846;52.970;-3.168;2023-04-01T11:49:15;2;2;
73565;PMS5003;61846;52.970;-3.168;2023-04-01T11:54:03;4;2;
73565;PMS5003;61846;52.970;-3.168;2023-04-01T11:56:35;2;2;
73565;PMS5003;61846;52.970;-3.168;2023-04-01T11:58:54;1;1;
73565;PMS5003;61846;52.970;-3.168;2023-04-01T12:01:22;1;1;
73565;PMS5003;61846;52.970;-3.168;2023-04-01T12:03:49;1;1;
73565;PMS5003;61846;52.970;-3.168;2023-04-01T12:06:08;1;1;
73565;PMS5003;61846;52.970;-3.168;2023-04-01T12:08:37;1;1;
73565;PMS5003;61846;52.970;-3.168;2023-04-01T12:11:00;1;1;
73565;PMS5003;61846;52.970;-3.168;2023-04-01T12:13:28;3;1;
73565;PMS5003;61846;52.970;-3.168;2023-04-01T12:15:55;4;3;
73565;PMS5003;61846;52.970;-3.168;2023-04-01T12:18:16;1;1;
73565;PMS5003;61846;52.970;-3.168;2023-04-01T12:20:44;3;1;
73565;PMS5003;61846;52.970;-3.168;2023-04-01T12:23:12;0;0;
73565;PMS5003;61846;52.970;-3.168;2023-04-01T12:28:00;3;3;
73565;PMS5003;61846;52.970;-3.168;2023-04-01T12:30:32;4;4;
73565;PMS5003;61846;52.970;-3.168;2023-04-01T12:32:51;1;1;
73565;PMS5003;61846;52.970;-3.168;2023-04-01T12:35:18;0;0;
73565;PMS5003;61846;52.970;-3.168;2023-04-01T12:37:40;2;2;
73565;PMS5003;61846;52.970;-3.168;2023-04-01T12:40:14;1;1;
73565;PMS5003;61846;52.970;-3.168;2023-04-01T12:42:34;7;5;
73565;PMS5003;61846;52.970;-3.168;2023-04-01T12:44:59;2;2;
73565;PMS5003;61846;52.970;-3.168;2023-04-01T12:47:29;1;1;
73565;PMS5003;61846;52.970;-3.168;2023-04-01T12:49:51;2;2;
73565;PMS5003;61846;52.970;-3.168;2023-04-01T12:52:12;2;1;
73565;PMS5003;61846;52.970;-3.168;2023-04-01T12:54:48;0;0;
73565;PMS5003;61846;52.970;-3.168;2023-04-01T12:57:06;1;1;
73565;PMS5003;61846;52.970;-3.168;2023-04-01T12:59:33;1;1;
73565;PMS5003;61846;52.970;-3.168;2023-04-01T13:04:25;2;0;
73565;PMS5003;61846;52.970;-3.168;2023-04-01T13:06:48;2;2;
73565;PMS5003;61846;52.970;-3.168;2023-04-01T13:09:12;3;1;
73565;PMS5003;61846;52.970;-3.168;2023-04-01T13:11:38;3;3;
73565;PMS5003;61846;52.970;-3.168;2023-04-01T13:14:08;1;1;
73565;PMS5003;61846;52.970;-3.168;2023-04-01T13:16:27;1;1;
73565;PMS5003;61846;52.970;-3.168;2023-04-01T13:18:54;1;1;
73565;PMS5003;61846;52.970;-3.168;2023-04-01T13:21:18;0;0;
73565;PMS5003;61846;52.970;-3.168;2023-04-01T13:23:48;4;4;
73565;PMS5003;61846;52.970;-3.168;2023-04-01T13:26:12;5;5;
73565;PMS5003;61846;52.970;-3.168;2023-04-01T13:28:35;8;8;
73565;PMS5003;61846;52.970;-3.168;2023-04-01T13:31:01;5;3;
73565;PMS5003;61846;52.970;-3.168;2023-04-01T13:33:26;3;2;
73565;PMS5003;61846;52.970;-3.168;2023-04-01T13:35:52;6;4;
73565;PMS5003;61846;52.970;-3.168;2023-04-01T13:38:32;6;6;
73565;PMS5003;61846;52.970;-3.168;2023-04-01T13:40:44;1;1;
73565;PMS5003;61846;52.970;-3.168;2023-04-01T13:43:10;2;2;
73565;PMS5003;61846;52.970;-3.168;2023-04-01T13:45:34;0;0;
73565;PMS5003;61846;52.970;-3.168;2023-04-01T13:50:26;4;1;
73565;PMS5003;61846;52.970;-3.168;2023-04-01T13:52:53;1;1;
73565;PMS5003;61846;52.970;-3.168;2023-04-01T13:55:21;1;1;
73565;PMS5003;61846;52.970;-3.168;2023-04-01T13:57:44;3;2;
73565;PMS5003;61846;52.970;-3.168;2023-04-01T14:02:42;3;3;
73565;PMS5003;61846;52.970;-3.168;2023-04-01T14:05:02;2;2;
73565;PMS5003;61846;52.970;-3.168;2023-04-01T14:09:51;3;3;
73565;PMS5003;61846;52.970;-3.168;2023-04-01T14:12:17;4;4;
73565;PMS5003;61846;52.970;-3.168;2023-04-01T14:14:44;3;2;
73565;PMS5003;61846;52.970;-3.168;2023-04-01T14:17:09;3;3;
73565;PMS5003;61846;52.970;-3.168;2023-04-01T14:19:35;4;2;
73565;PMS5003;61846;52.970;-3.168;2023-04-01T14:21:57;2;2;
73565;PMS5003;61846;52.970;-3.168;2023-04-01T14:24:23;3;3;
73565;PMS5003;61846;52.970;-3.168;2023-04-01T14:29:16;2;2;
73565;PMS5003;61846;52.970;-3.168;2023-04-01T14:31:42;1;1;
73565;PMS5003;61846;52.970;-3.168;2023-04-01T14:34:06;2;2;
73565;PMS5003;61846;52.970;-3.168;2023-04-01T14:36:32;3;2;
73565;PMS5003;61846;52.970;-3.168;2023-04-01T14:38:55;3;3;
73565;PMS5003;61846;52.970;-3.168;2023-04-01T14:41:21;2;1;
73565;PMS5003;61846;52.970;-3.168;2023-04-01T14:46:14;1;1;
73565;PMS5003;61846;52.970;-3.168;2023-04-01T14:48:37;2;1;
73565;PMS5003;61846;52.970;-3.168;2023-04-01T14:51:03;0;0;
73565;PMS5003;61846;52.970;-3.168;2023-04-01T14:53:28;1;1;
73565;PMS5003;61846;52.970;-3.168;2023-04-01T14:55:54;0;0;
73565;PMS5003;61846;52.970;-3.168;2023-04-01T14:58:19;3;1;
73565;PMS5003;61846;52.970;-3.168;2023-04-01T15:00:48;1;1;
73565;PMS5003;61846;52.970;-3.168;2023-04-01T15:03:11;3;1;
73565;PMS5003;61846;52.970;-3.168;2023-04-01T15:05:38;2;1;
73565;PMS5003;61846;52.970;-3.168;2023-04-01T15:08:10;2;2;
73565;PMS5003;61846;52.970;-3.168;2023-04-01T15:12:52;2;2;
73565;PMS5003;61846;52.970;-3.168;2023-04-01T15:15:20;1;1;
73565;PMS5003;61846;52.970;-3.168;2023-04-01T15:17:46;1;1;
73565;PMS5003;61846;52.970;-3.168;2023-04-01T15:20:12;9;8;
73565;PMS5003;61846;52.970;-3.168;2023-04-01T15:22:38;2;2;
73565;PMS5003;61846;52.970;-3.168;2023-04-01T15:25:04;11;9;
73565;PMS5003;61846;52.970;-3.168;2023-04-01T15:27:28;15;14;
73565;PMS5003;61846;52.970;-3.168;2023-04-01T15:29:54;16;12;
73565;PMS5003;61846;52.970;-3.168;2023-04-01T15:32:17;9;7;
73565;PMS5003;61846;52.970;-3.168;2023-04-01T15:34:42;5;2;
73565;PMS5003;61846;52.970;-3.168;2023-04-01T15:37:08;2;2;
73565;PMS5003;61846;52.970;-3.168;2023-04-01T15:44:33;2;2;
73565;PMS5003;61846;52.970;-3.168;2023-04-01T15:46:47;2;2;
73565;PMS5003;61846;52.970;-3.168;2023-04-01T15:49:16;2;2;
73565;PMS5003;61846;52.970;-3.168;2023-04-01T15:51:42;0;0;
73565;PMS5003;61846;52.970;-3.168;2023-04-01T15:58:59;3;2;
73565;PMS5003;61846;52.970;-3.168;2023-04-01T16:01:25;6;4;
73565;PMS5003;61846;52.970;-3.168;2023-04-01T16:03:48;7;6;
73565;PMS5003;61846;52.970;-3.168;2023-04-01T16:06:14;11;11;
73565;PMS5003;61846;52.970;-3.168;2023-04-01T16:08:41;5;3;
73565;PMS5003;61846;52.970;-3.168;2023-04-01T16:11:05;4;3;
73565;PMS5003;61846;52.970;-3.168;2023-04-01T16:13:30;1;1;
73565;PMS5003;61846;52.970;-3.168;2023-04-01T16:15:55;1;1;
73565;PMS5003;61846;52.970;-3.168;2023-04-01T16:18:23;2;2;
73565;PMS5003;61846;52.970;-3.168;2023-04-01T16:20:46;1;1;
73565;PMS5003;61846;52.970;-3.168;2023-04-01T16:23:11;4;3;
73565;PMS5003;61846;52.970;-3.168;2023-04-01T16:25:36;3;3;
73565;PMS5003;61846;52.970;-3.168;2023-04-01T16:28:07;3;2;
73565;PMS5003;61846;52.970;-3.168;2023-04-01T16:30:32;1;1;
73565;PMS5003;61846;52.970;-3.168;2023-04-01T16:32:53;3;3;
73565;PMS5003;61846;52.970;-3.168;2023-04-01T16:35:22;3;3;
73565;PMS5003;61846;52.970;-3.168;2023-04-01T16:37:44;4;3;
73565;PMS5003;61846;52.970;-3.168;2023-04-01T16:40:11;3;3;
73565;PMS5003;61846;52.970;-3.168;2023-04-01T16:42:38;4;4;
73565;PMS5003;61846;52.970;-3.168;2023-04-01T16:45:01;8;8;
73565;PMS5003;61846;52.970;-3.168;2023-04-01T16:47:27;11;9;
73565;PMS5003;61846;52.970;-3.168;2023-04-01T16:49:51;7;6;
73565;PMS5003;61846;52.970;-3.168;2023-04-01T16:52:16;7;6;
73565;PMS5003;61846;52.970;-3.168;2023-04-01T16:54:43;4;3;
73565;PMS5003;61846;52.970;-3.168;2023-04-01T16:59:34;3;3;
73565;PMS5003;61846;52.970;-3.168;2023-04-01T17:02:02;4;4;
73565;PMS5003;61846;52.970;-3.168;2023-04-01T17:04:26;4;4;
73565;PMS5003;61846;52.970;-3.168;2023-04-01T17:06:49;5;5;
73565;PMS5003;61846;52.970;-3.168;2023-04-01T17:09:18;4;3;
73565;PMS5003;61846;52.970;-3.168;2023-04-01T17:11:41;2;1;
73565;PMS5003;61846;52.970;-3.168;2023-04-01T17:14:08;1;1;
73565;PMS5003;61846;52.970;-3.168;2023-04-01T17:16:41;1;1;
73565;PMS5003;61846;52.970;-3.168;2023-04-01T17:18:59;3;3;
73565;PMS5003;61846;52.970;-3.168;2023-04-01T17:21:23;3;2;
73565;PMS5003;61846;52.970;-3.168;2023-04-01T17:23:48;5;5;
73565;PMS5003;61846;52.970;-3.168;2023-04-01T17:26:16;4;4;
73565;PMS5003;61846;52.970;-3.168;2023-04-01T17:28:43;4;2;
73565;PMS5003;61846;52.970;-3.168;2023-04-01T17:31:06;3;3;
73565;PMS5003;61846;52.970;-3.168;2023-04-01T17:33:38;1;1;
73565;PMS5003;61846;52.970;-3.168;2023-04-01T17:35:57;4;4;
73565;PMS5003;61846;52.970;-3.168;2023-04-01T17:38:22;8;8;
73565;PMS5003;61846;52.970;-3.168;2023-04-01T17:40:50;14;12;
73565;PMS5003;61846;52.970;-3.168;2023-04-01T17:43:14;10;9;
73565;PMS5003;61846;52.970;-3.168;2023-04-01T17:45:38;4;4;
73565;PMS5003;61846;52.970;-3.168;2023-04-01T17:48:05;5;5;